Date,TemperatureHighF,TemperatureAvgF,TemperatureLowF,DewpointHighF,DewpointAvgF,DewpointLowF,HumidityHigh,HumidityAvg,HumidityLow,PressureMaxIn,PressureMinIn,WindSpeedMaxMPH,WindSpeedAvgMPH,GustSpeedMaxMPH,PrecipitationSumIn
2013-4-1,51.1,39.4,31.2,36.8,23.9,15.1,83,56,32,30.15,29.75,27,13,27,0.00
2013-4-2,49.8,40.1,32.4,29.2,21.9,16.4,65,50,28,30.16,30.04,20,6,20,0.00
2013-4-3,43.9,39.7,35.3,30.9,28.1,19.8,77,64,41,30.18,30.08,21,4,21,0.00
2013-4-4,47.9,39.8,36.3,35.5,32.9,30.0,89,76,60,30.08,30.02,11,4,12,0.00
2013-4-5,66.9,54.1,38.6,43.1,39.6,35.4,89,61,33,29.94,29.51,33,16,46,0.00
2013-4-6,76.0,62.8,53.6,47.0,42.3,36.5,74,50,25,29.62,29.41,36,17,48,0.00
2013-4-7,74.7,62.5,51.1,57.4,47.0,35.9,93,59,28,29.62,29.40,32,11,32,0.00
2013-4-8,76.0,63.7,57.5,60.5,58.3,55.8,97,84,50,29.45,29.33,28,11,28,0.00
2013-4-9,71.8,56.5,31.3,60.6,51.7,30.0,96,85,62,29.80,29.27,33,15,35,0.66
2013-4-10,31.2,29.5,28.5,30.2,27.9,26.5,96,94,91,29.89,29.69,0,0,0,0.01
2013-4-11,46.1,34.1,25.8,30.8,26.6,22.7,95,75,50,29.79,29.59,19,4,26,0.05
2013-4-12,56.2,40.8,28.8,33.7,28.5,23.6,82,64,39,29.86,29.70,20,8,22,0.00
2013-4-13,67.8,53.5,35.8,51.1,39.3,29.6,80,60,42,29.87,29.30,36,11,42,0.00
2013-4-14,69.6,61.8,50.2,52.2,38.8,23.4,65,45,19,29.55,29.15,52,22,53,0.00
2013-4-15,53.1,47.3,40.2,37.7,28.5,22.3,76,49,34,29.83,29.52,22,11,24,0.01
2013-4-16,46.0,41.8,37.0,36.4,29.6,26.4,82,62,49,29.97,29.77,27,14,27,0.00
2013-4-17,44.3,41.5,38.3,44.0,40.4,36.4,100,96,82,29.88,29.55,28,10,30,0.83
2013-4-18,38.6,35.3,31.2,38.3,29.9,24.3,99,81,62,29.90,29.59,34,17,35,0.08
2013-4-19,57.0,41.6,27.8,32.9,26.6,21.6,80,58,33,29.92,29.83,27,11,27,0.00
2013-4-20,54.7,39.4,32.1,34.7,28.5,25.5,80,66,44,29.96,29.90,27,10,27,0.00
2013-4-21,67.9,58.5,49.4,43.6,40.0,36.7,67,51,37,29.91,29.81,31,16,42,0.00
2013-4-22,58.6,49.7,34.1,51.5,43.2,31.7,92,79,61,30.00,29.69,33,12,36,0.19
2013-4-23,34.3,31.6,29.4,32.0,29.8,27.8,100,93,84,30.12,29.93,32,13,32,0.13
2013-4-24,57.8,40.8,25.0,34.3,28.7,22.1,90,66,32,30.12,29.97,26,8,26,0.02
2013-4-25,69.6,53.2,37.3,42.1,34.6,28.5,75,52,23,30.10,29.84,32,9,33,0.00
2013-4-26,58.3,51.8,48.2,49.9,46.2,37.8,100,82,50,29.98,29.84,29,11,31,0.11
2013-4-27,66.3,54.8,48.8,52.6,50.0,48.8,100,86,58,29.98,29.79,13,4,13,0.00
2013-4-28,79.8,63.0,47.9,57.2,51.9,46.9,98,71,36,29.80,29.49,32,14,32,0.00
2013-4-29,85.5,70.8,53.9,58.9,54.2,48.2,87,59,31,29.55,29.30,38,14,38,0.00
2013-4-30,84.5,73.3,63.4,59.9,55.7,49.5,74,55,38,29.49,29.34,45,21,47,0.00